Port Perry, Canada
Current Conditions -  °F | °C
As of 5:00 AM on Tuesday 27 Jan 2015 (Local Time) from CYOO Reporting Station
Light Snow Light Snow  
Wind Chill: -3°   Ceiling: 4600
Heat Index: 10°   Visibility: 9mi
Dew Point:   Wind: 10mph
Humidity: 67%   Direction: 20°NNE
Pressure: 30.01"   Gusts: NA
Location:  44.1°N, 78.93°W
Report Text: CYOO 271000Z AUTO 02009KT 9SM -SN OVC046 M12/M17 A3001 RMK SLP173
Loading
Personal Weather Stations






























Interactive Weather Map New forecast layout! Learn more

10-Day Weather Forecast

Advertisements
Track Severe Weather on mobile